Time;durP1;ratioP1;P1;durP2;ratioP2;P2;SDS_P1;SDS_P2;PMS_P1;PMS_P2;Temp;Humidity;BMP_temperature;BMP_pressure;BME280_temperature;BME280_humidity;BME280_pressure;Samples;Min_cycle;Max_cycle;Signal;HPM_P1;HPM_P2
2023/02/07 00:01:36;;;;;;;;;;;;;;;-2.44;54.73;102186.97;4426186;32;32389;-90
2023/02/07 00:04:17;;;;;;;;;;;;;;;-2.38;54.50;102190.72;4431315;32;34976;-90
2023/02/07 00:06:56;;;;;;;;;;;;;;;-2.37;54.63;102197.69;4396575;32;33297;-92
2023/02/07 00:09:49;;;;;;;;;;;;;;;-2.33;54.62;102202.19;4387889;32;33102;-93
2023/02/07 00:12:28;;;;;;;;;;;;;;;-2.47;55.06;102211.00;4388620;32;32559;-93
2023/02/07 00:15:20;;;;;;;;;;;;;;;-2.50;55.17;102220.31;4376368;32;33016;-90
2023/02/07 00:18:01;;;;;;;;;;;;;;;-2.47;55.12;102228.19;4420381;32;32840;-89
2023/02/07 00:20:34;;;;;;;;;;;;;;;-2.39;54.59;102222.56;4406885;32;32602;-90
2023/02/07 00:23:13;;;;;;;;;;;;;;;-2.18;53.92;102229.59;4411648;32;33384;-90
2023/02/07 00:26:03;;;;;;;;;;;;;;;-2.37;54.11;102228.72;4413948;32;34284;-88
2023/02/07 00:28:31;;;;;;;;;;;;;;;-2.42;54.14;102227.63;4420549;32;31923;-88
2023/02/07 00:31:06;;;;;;;;;;;;;;;-2.40;54.30;102225.97;4420608;32;33134;-88
2023/02/07 00:33:36;;;;;;;;;;;;;;;-2.27;53.81;102226.56;4409839;32;31295;-88
2023/02/07 00:36:05;;;;;;;;;;;;;;;-2.28;53.96;102235.12;4408867;32;32740;-89
2023/02/07 00:38:32;;;;;;;;;;;;;;;-2.23;53.61;102216.44;4429040;32;34603;-89
2023/02/07 00:41:01;;;;;;;;;;;;;;;-2.58;54.57;102227.69;4414619;32;33449;-90
2023/02/07 00:43:33;;;;;;;;;;;;;;;-2.69;54.90;102234.94;4417595;32;32222;-90
2023/02/07 00:46:29;;;;;;;;;;;;;;;-2.50;54.32;102226.37;4386663;32;33316;-91
2023/02/07 00:49:09;;;;;;;;;;;;;;;-2.53;54.27;102243.44;4417728;32;33720;-92
2023/02/07 00:52:00;;;;;;;;;;;;;;;-2.51;54.37;102236.66;4390740;32;34626;-92
2023/02/07 00:54:39;;;;;;;;;;;;;;;-2.58;54.52;102235.44;4420077;32;32195;-91
2023/02/07 00:57:30;;;;;;;;;;;;;;;-2.63;54.59;102244.69;4407949;32;34073;-91
2023/02/07 01:00:10;;;;;;;;;;;;;;;-2.57;54.15;102224.28;4377131;32;32812;-90
2023/02/07 01:02:51;;;;;;;;;;;;;;;-2.75;55.01;102231.13;4389791;32;32864;-90
2023/02/07 01:05:44;;;;;;;;;;;;;;;-2.43;53.99;102231.00;4366204;32;33735;-92
2023/02/07 01:08:37;;;;;;;;;;;;;;;-2.70;54.77;102230.56;4367239;32;33063;-89
2023/02/07 01:11:06;;;;;;;;;;;;;;;-2.64;54.66;102220.53;4370471;32;33700;-90
2023/02/07 01:13:36;;;;;;;;;;;;;;;-2.52;54.38;102222.78;4393993;32;32986;-90
2023/02/07 01:16:05;;;;;;;;;;;;;;;-2.38;53.75;102226.94;4380764;32;31138;-90
2023/02/07 01:18:32;;;;;;;;;;;;;;;-2.34;53.73;102231.44;4376777;32;33858;-90
2023/02/07 01:21:01;;;;;;;;;;;;;;;-2.26;53.50;102225.75;4375922;32;33854;-90
2023/02/07 01:23:28;;;;;;;;;;;;;;;-2.37;53.79;102215.78;4368943;32;34816;-90
2023/02/07 01:25:58;;;;;;;;;;;;;;;-2.48;54.11;102222.12;4387038;32;33406;-90
2023/02/07 01:28:27;;;;;;;;;;;;;;;-2.49;53.87;102209.13;4374041;32;32807;-91
2023/02/07 01:30:54;;;;;;;;;;;;;;;-2.65;54.21;102208.41;4389646;32;33135;-91
2023/02/07 01:33:26;;;;;;;;;;;;;;;-2.68;54.40;102202.19;4383160;32;32692;-89
2023/02/07 01:35:54;;;;;;;;;;;;;;;-2.64;54.23;102204.13;4396659;32;32547;-88
2023/02/07 01:38:22;;;;;;;;;;;;;;;-2.48;53.70;102195.38;4368503;32;32135;-88
2023/02/07 01:40:50;;;;;;;;;;;;;;;-2.46;53.56;102201.53;4371743;32;33430;-89
2023/02/07 01:43:19;;;;;;;;;;;;;;;-2.62;54.04;102186.97;4387335;32;33878;-89
2023/02/07 01:45:47;;;;;;;;;;;;;;;-2.80;54.19;102191.25;4387937;32;32767;-91
2023/02/07 01:48:35;;;;;;;;;;;;;;;-2.71;54.45;102195.16;4360156;32;33149;-91
2023/02/07 01:51:07;;;;;;;;;;;;;;;-2.77;54.43;102184.53;4380215;32;33433;-89
2023/02/07 01:53:35;;;;;;;;;;;;;;;-2.95;54.87;102186.22;4359421;32;33430;-89
2023/02/07 01:56:05;;;;;;;;;;;;;;;-3.16;55.54;102181.75;4364458;32;33435;-89
2023/02/07 01:58:34;;;;;;;;;;;;;;;-2.94;55.22;102180.25;4391478;32;35331;-90
2023/02/07 02:01:05;;;;;;;;;;;;;;;-2.90;54.87;102180.44;4359825;32;33338;-89
2023/02/07 02:03:33;;;;;;;;;;;;;;;-2.84;54.81;102177.31;4364948;32;33816;-89
2023/02/07 02:06:01;;;;;;;;;;;;;;;-3.01;55.87;102184.22;4377353;32;32477;-89
2023/02/07 02:08:29;;;;;;;;;;;;;;;-3.07;55.54;102170.13;4396739;32;33448;-89
2023/02/07 02:11:16;;;;;;;;;;;;;;;-3.01;55.31;102168.72;4392818;32;35055;-89
2023/02/07 02:13:45;;;;;;;;;;;;;;;-2.76;54.58;102164.72;4387437;32;33205;-89
2023/02/07 02:16:23;;;;;;;;;;;;;;;-2.94;55.26;102168.22;4412132;32;32967;-89
2023/02/07 02:19:01;;;;;;;;;;;;;;;-2.91;55.02;102170.03;4399309;32;33830;-90
2023/02/07 02:21:47;;;;;;;;;;;;;;;-3.02;55.48;102168.63;4412878;32;34183;-90
2023/02/07 02:24:40;;;;;;;;;;;;;;;-2.77;54.72;102165.53;4398462;32;32369;-88
2023/02/07 02:27:18;;;;;;;;;;;;;;;-2.86;54.65;102161.69;4393834;32;32045;-90
2023/02/07 02:30:06;;;;;;;;;;;;;;;-3.01;55.36;102168.72;4402903;32;33734;-90
2023/02/07 02:32:53;;;;;;;;;;;;;;;-3.08;55.69;102169.22;4382954;32;33010;-91
2023/02/07 02:35:50;;;;;;;;;;;;;;;-3.00;55.13;102177.34;4398519;32;32963;-90
2023/02/07 02:38:54;;;;;;;;;;;;;;;-3.12;55.45;102172.47;4420176;32;32132;-91
2023/02/07 02:41:49;;;;;;;;;;;;;;;-3.16;55.68;102165.37;4427659;32;33383;-87
2023/02/07 02:44:21;;;;;;;;;;;;;;;-3.35;56.62;102163.56;4430081;32;33950;-88
2023/02/07 02:46:49;;;;;;;;;;;;;;;-3.33;56.29;102174.84;4410615;32;35675;-87
2023/02/07 02:49:16;;;;;;;;;;;;;;;-3.38;56.55;102182.37;4422073;32;34263;-88
2023/02/07 02:51:44;;;;;;;;;;;;;;;-3.22;56.58;102183.16;4428740;32;33840;-88
2023/02/07 02:54:31;;;;;;;;;;;;;;;-3.07;55.77;102186.50;4420731;32;33281;-89
2023/02/07 02:57:02;;;;;;;;;;;;;;;-3.06;55.45;102177.06;4429345;32;33598;-88
2023/02/07 02:59:39;;;;;;;;;;;;;;;-3.23;55.82;102179.69;4410906;32;32313;-89
2023/02/07 03:02:23;;;;;;;;;;;;;;;-3.21;55.98;102169.44;4422220;32;33713;-89
2023/02/07 03:04:51;;;;;;;;;;;;;;;-3.18;55.94;102157.56;4409620;32;31947;-89
2023/02/07 03:07:32;;;;;;;;;;;;;;;-3.22;55.71;102159.91;4421414;32;32014;-89
2023/02/07 03:10:11;;;;;;;;;;;;;;;-3.27;56.04;102162.25;4428181;32;33230;-89
2023/02/07 03:12:40;;;;;;;;;;;;;;;-3.11;55.64;102167.38;4421261;32;33201;-89
2023/02/07 03:15:15;;;;;;;;;;;;;;;-3.27;55.66;102175.19;4419496;32;34291;-89
2023/02/07 03:17:59;;;;;;;;;;;;;;;-3.28;56.04;102175.09;4408797;32;33695;-89
2023/02/07 03:20:38;;;;;;;;;;;;;;;-3.30;56.10;102171.53;4429021;32;33360;-88
2023/02/07 03:23:05;;;;;;;;;;;;;;;-3.17;55.74;102172.25;4427886;32;33712;-89
2023/02/07 03:25:34;;;;;;;;;;;;;;;-3.07;55.25;102170.13;4424888;32;33452;-88
2023/02/07 03:28:03;;;;;;;;;;;;;;;-3.35;55.68;102167.03;4426424;32;34749;-89
2023/02/07 03:30:32;;;;;;;;;;;;;;;-3.39;55.82;102167.69;4415102;32;32336;-89
2023/02/07 03:33:06;;;;;;;;;;;;;;;-3.47;56.17;102173.25;4432737;32;32321;-89
2023/02/07 03:35:35;;;;;;;;;;;;;;;-3.59;56.82;102178.69;4413644;32;34224;-88
2023/02/07 03:38:04;;;;;;;;;;;;;;;-3.50;56.85;102175.72;4426767;32;33177;-88
2023/02/07 03:40:34;;;;;;;;;;;;;;;-3.50;57.14;102176.59;4431959;32;32098;-89
2023/02/07 03:43:03;;;;;;;;;;;;;;;-3.37;56.60;102175.50;4425791;32;32427;-88
2023/02/07 03:45:31;;;;;;;;;;;;;;;-3.39;56.59;102169.37;4421546;32;33356;-88
2023/02/07 03:47:59;;;;;;;;;;;;;;;-3.25;56.12;102168.38;4425525;32;33559;-88
2023/02/07 03:50:28;;;;;;;;;;;;;;;-3.36;56.16;102161.78;4402207;32;33165;-92
2023/02/07 03:53:13;;;;;;;;;;;;;;;-3.46;56.40;102164.72;4399570;32;32457;-91
2023/02/07 03:55:55;;;;;;;;;;;;;;;-3.36;55.81;102165.25;4369899;32;33895;-91
2023/02/07 03:58:44;;;;;;;;;;;;;;;-3.16;55.02;102174.00;4386993;32;33245;-90
2023/02/07 04:01:15;;;;;;;;;;;;;;;-3.27;55.31;102170.00;4425478;32;32681;-90
2023/02/07 04:03:43;;;;;;;;;;;;;;;-3.30;55.45;102164.69;4401957;32;32825;-91
2023/02/07 04:06:11;;;;;;;;;;;;;;;-3.30;55.41;102162.09;4417378;32;33129;-91
2023/02/07 04:08:43;;;;;;;;;;;;;;;-3.33;55.53;102161.03;4415926;32;32015;-91
2023/02/07 04:11:12;;;;;;;;;;;;;;;-3.27;55.41;102166.53;4419942;32;32402;-90
2023/02/07 04:13:44;;;;;;;;;;;;;;;-3.29;55.44;102162.97;4415993;32;33682;-91
2023/02/07 04:16:13;;;;;;;;;;;;;;;-3.46;55.40;102152.69;4402471;32;32693;-91
2023/02/07 04:18:42;;;;;;;;;;;;;;;-3.26;54.79;102147.63;4391861;32;33414;-91
2023/02/07 04:21:34;;;;;;;;;;;;;;;-3.12;54.37;102157.84;4407834;32;32459;-91
2023/02/07 04:24:17;;;;;;;;;;;;;;;-3.15;54.53;102161.97;4413802;32;32919;-91
2023/02/07 04:26:58;;;;;;;;;;;;;;;-3.38;55.51;102159.13;4371784;32;34025;-89
2023/02/07 04:29:25;;;;;;;;;;;;;;;-3.45;55.71;102166.50;4368697;32;32335;-90
2023/02/07 04:31:53;;;;;;;;;;;;;;;-3.70;56.14;102156.63;4363292;32;31893;-91
2023/02/07 04:34:25;;;;;;;;;;;;;;;-3.42;55.54;102156.28;4351387;32;33959;-89
2023/02/07 04:36:55;;;;;;;;;;;;;;;-3.51;55.52;102159.31;4387414;32;32576;-91
2023/02/07 04:39:46;;;;;;;;;;;;;;;-3.67;55.66;102143.84;4363068;32;33949;-90
2023/02/07 04:42:34;;;;;;;;;;;;;;;-3.67;56.02;102143.84;4343287;32;32933;-91
2023/02/07 04:45:06;;;;;;;;;;;;;;;-3.53;55.92;102153.19;4351254;32;34316;-91
2023/02/07 04:47:36;;;;;;;;;;;;;;;-3.51;56.08;102155.81;4363721;32;33079;-91
2023/02/07 04:50:14;;;;;;;;;;;;;;;-3.64;56.50;102149.19;4362263;32;32576;-90
2023/02/07 04:52:44;;;;;;;;;;;;;;;-3.37;56.13;102163.50;4363419;32;31628;-91
2023/02/07 04:55:12;;;;;;;;;;;;;;;-3.39;55.78;102164.22;4350976;32;33245;-90
2023/02/07 04:57:40;;;;;;;;;;;;;;;-3.27;55.49;102164.84;4350164;32;33080;-91
2023/02/07 05:00:08;;;;;;;;;;;;;;;-3.26;55.30;102171.78;4374945;32;33741;-90
2023/02/07 05:02:43;;;;;;;;;;;;;;;-3.28;55.19;102168.22;4351004;32;33475;-91
2023/02/07 05:05:13;;;;;;;;;;;;;;;-3.30;55.25;102169.84;4363010;32;34269;-91
2023/02/07 05:07:47;;;;;;;;;;;;;;;-3.30;55.14;102179.28;4363569;32;33409;-91
2023/02/07 05:10:23;;;;;;;;;;;;;;;-3.47;55.59;102188.75;4357742;32;32924;-90
2023/02/07 05:12:50;;;;;;;;;;;;;;;-3.45;55.62;102189.75;4362871;32;32090;-88
2023/02/07 05:15:21;;;;;;;;;;;;;;;-3.60;55.77;102192.44;4362686;32;34134;-88
2023/02/07 05:17:52;;;;;;;;;;;;;;;-3.62;55.95;102205.22;4374745;32;33088;-90
2023/02/07 05:20:24;;;;;;;;;;;;;;;-3.41;55.31;102204.59;4363670;32;33048;-93
2023/02/07 05:23:09;;;;;;;;;;;;;;;-3.48;55.29;102211.12;4385285;32;32490;-93
2023/02/07 05:25:51;;;;;;;;;;;;;;;-3.48;55.26;102211.12;4387223;32;33613;-93
2023/02/07 05:28:34;;;;;;;;;;;;;;;-3.61;55.67;102225.09;4397055;32;34139;-92
2023/02/07 05:33:02;;;;;;;;;;;;;;;-3.53;55.69;102222.91;4393613;32;32943;-93
2023/02/07 05:34:33;;;;;;;;;;;;;;;-3.47;55.33;102215.47;4416267;32;33086;-93
2023/02/07 05:37:25;;;;;;;;;;;;;;;-3.33;54.92;102217.88;4408846;32;34031;-91
2023/02/07 05:42:54;;;;;;;;;;;;;;;-3.63;55.92;102211.22;4397236;32;32551;-88
2023/02/07 05:45:27;;;;;;;;;;;;;;;-3.59;55.63;102209.69;4403959;32;31815;-87
2023/02/07 05:47:57;;;;;;;;;;;;;;;-3.49;55.70;102216.22;4409759;32;33753;-87
2023/02/07 05:50:25;;;;;;;;;;;;;;;-3.65;55.27;102214.53;4399001;32;33915;-89
2023/02/07 05:53:24;;;;;;;;;;;;;;;-3.66;55.65;102217.91;4397240;32;32921;-90
2023/02/07 05:55:59;;;;;;;;;;;;;;;-3.96;56.34;102223.22;4409875;32;32021;-90
2023/02/07 05:58:40;;;;;;;;;;;;;;;-3.56;55.56;102225.34;4415427;32;32805;-90
2023/02/07 06:01:25;;;;;;;;;;;;;;;-3.54;55.14;102221.13;4397378;32;33436;-90
2023/02/07 06:04:25;;;;;;;;;;;;;;;-3.52;54.96;102222.09;4413614;32;35486;-90
2023/02/07 06:06:58;;;;;;;;;;;;;;;-3.67;55.17;102213.56;4395220;32;32384;-91
2023/02/07 06:12:20;;;;;;;;;;;;;;;-3.61;55.09;102219.94;4413042;32;32865;-90
2023/02/07 06:17:33;;;;;;;;;;;;;;;-3.48;55.02;102224.03;4408005;32;32664;-90
2023/02/07 06:20:03;;;;;;;;;;;;;;;-3.39;54.73;102228.78;4417933;32;34405;-91
2023/02/07 06:22:32;;;;;;;;;;;;;;;-3.33;54.22;102225.63;4393259;32;33125;-90
2023/02/07 06:25:02;;;;;;;;;;;;;;;-3.64;55.14;102226.63;4420321;32;33998;-91
2023/02/07 06:27:35;;;;;;;;;;;;;;;-3.73;55.02;102226.16;4409118;32;32375;-90
2023/02/07 06:30:05;;;;;;;;;;;;;;;-3.65;55.21;102214.53;4419206;32;34223;-89
2023/02/07 06:32:34;;;;;;;;;;;;;;;-3.49;54.85;102222.25;4398509;32;33420;-87
2023/02/07 06:35:04;;;;;;;;;;;;;;;-3.46;54.87;102227.59;4405436;32;33391;-89
2023/02/07 06:37:37;;;;;;;;;;;;;;;-3.49;54.98;102222.25;4429188;32;31410;-90
2023/02/07 06:40:07;;;;;;;;;;;;;;;-3.40;54.43;102227.91;4404823;32;33104;-90
2023/02/07 06:42:43;;;;;;;;;;;;;;;-3.46;54.66;102219.84;4394048;32;32939;-90
2023/02/07 06:45:19;;;;;;;;;;;;;;;-3.43;54.80;102212.25;4404099;32;32988;-92
2023/02/07 06:48:04;;;;;;;;;;;;;;;-3.55;55.02;102211.62;4402960;32;33256;-92
2023/02/07 06:51:11;;;;;;;;;;;;;;;-3.48;55.21;102200.78;4404213;32;32337;-91
2023/02/07 06:53:51;;;;;;;;;;;;;;;-3.60;55.84;102205.34;4383986;32;32845;-91
2023/02/07 06:56:42;;;;;;;;;;;;;;;-3.44;55.83;102202.72;4360693;32;33846;-90
2023/02/07 06:59:27;;;;;;;;;;;;;;;-3.40;56.26;102199.50;4394736;32;32069;-91
2023/02/07 07:02:24;;;;;;;;;;;;;;;-3.31;56.27;102200.78;4398954;32;35724;-87
2023/02/07 07:04:52;;;;;;;;;;;;;;;-3.18;56.50;102197.97;4383000;32;33850;-88
2023/02/07 07:07:22;;;;;;;;;;;;;;;-3.09;56.89;102198.44;4384101;32;33435;-88
2023/02/07 07:09:57;;;;;;;;;;;;;;;-3.17;57.38;102198.09;4369147;32;32732;-87
2023/02/07 07:12:35;;;;;;;;;;;;;;;-2.94;57.22;102194.06;4367042;32;34470;-87
2023/02/07 07:15:10;;;;;;;;;;;;;;;-2.96;57.52;102193.09;4380633;32;34230;-87
2023/02/07 07:17:46;;;;;;;;;;;;;;;-2.81;57.25;102199.81;4398898;32;34110;-87
2023/02/07 07:20:15;;;;;;;;;;;;;;;-2.58;57.11;102189.75;4381081;32;33722;-87
2023/02/07 07:22:46;;;;;;;;;;;;;;;-2.36;56.76;102191.69;4357723;32;32866;-87
2023/02/07 07:25:14;;;;;;;;;;;;;;;-2.41;56.99;102187.13;4351806;32;34120;-87
2023/02/07 07:27:42;;;;;;;;;;;;;;;-2.15;56.48;102180.53;4369212;32;33092;-89
2023/02/07 07:30:13;;;;;;;;;;;;;;;-2.13;55.95;102179.81;4352610;32;32018;-89
2023/02/07 07:32:42;;;;;;;;;;;;;;;-2.13;56.30;102184.09;4369628;32;32766;-88
2023/02/07 07:35:12;;;;;;;;;;;;;;;-1.99;55.89;102183.03;4369438;32;31756;-88
2023/02/07 07:37:47;;;;;;;;;;;;;;;-1.85;55.79;102181.94;4395083;32;33072;-89
2023/02/07 07:40:21;;;;;;;;;;;;;;;-1.99;56.52;102177.84;4378846;32;31821;-89
2023/02/07 07:42:56;;;;;;;;;;;;;;;-1.97;56.28;102185.69;4381857;32;32990;-88
2023/02/07 07:45:26;;;;;;;;;;;;;;;-1.59;55.79;102180.50;4377793;32;34225;-88
2023/02/07 07:48:03;;;;;;;;;;;;;;;-1.70;55.88;102186.94;4368583;32;34853;-89
2023/02/07 07:50:35;;;;;;;;;;;;;;;-1.36;54.90;102180.62;4380291;32;33132;-88
2023/02/07 07:53:07;;;;;;;;;;;;;;;-1.24;54.89;102183.72;4393171;32;34005;-91
2023/02/07 07:55:59;;;;;;;;;;;;;;;-1.38;55.28;102183.13;4390854;32;33023;-92
2023/02/07 07:58:31;;;;;;;;;;;;;;;-1.02;54.61;102182.91;4393833;32;33421;-88
2023/02/07 08:01:15;;;;;;;;;;;;;;;-0.82;54.11;102179.41;4390472;32;32786;-86
2023/02/07 08:03:50;;;;;;;;;;;;;;;-0.54;53.59;102181.41;4405169;32;33432;-87
2023/02/07 08:06:19;;;;;;;;;;;;;;;-0.31;52.85;102173.66;4402429;32;33269;-86
2023/02/07 08:08:50;;;;;;;;;;;;;;;-0.10;52.32;102173.56;4384114;32;34683;-89
2023/02/07 08:11:30;;;;;;;;;;;;;;;-0.40;52.83;102173.28;4394686;32;32933;-87
2023/02/07 08:13:59;;;;;;;;;;;;;;;-0.19;52.33;102170.62;4391628;32;33966;-88
2023/02/07 08:17:16;;;;;;;;;;;;;;;-0.14;52.62;102171.69;4397466;32;34456;-88
2023/02/07 08:20:34;;;;;;;;;;;;;;;0.12;51.92;102170.06;4398260;32;33670;-88
2023/02/07 08:23:05;;;;;;;;;;;;;;;-0.01;51.38;102169.59;4379166;32;33132;-89
2023/02/07 08:26:03;;;;;;;;;;;;;;;-0.09;51.97;102162.37;4391891;32;34333;-89
2023/02/07 08:29:16;;;;;;;0.17;0.17;;;;;;;0.57;50.65;102175.13;4397186;32;33980;-88
2023/02/07 08:37:36;;;;;;;0.10;0.10;;;;;;;0.61;49.39;102167.50;4405329;32;34968;-89
2023/02/07 08:40:18;;;;;;;1.65;1.55;;;;;;;0.81;49.59;102169.88;4403595;32;33184;-89
2023/02/07 08:43:21;;;;;;;0.65;0.65;;;;;;;0.81;50.00;102178.59;4384785;32;34913;-89
2023/02/07 08:46:08;;;;;;;1.42;1.15;;;;;;;1.19;48.56;102174.69;4385927;32;31984;-89
2023/02/07 08:48:50;;;;;;;2.00;1.90;;;;;;;1.20;49.06;102171.22;4389046;32;34815;-89
2023/02/07 08:51:27;;;;;;;0.80;0.80;;;;;;;0.75;50.03;102184.44;4391321;32;33509;-89
2023/02/07 08:54:55;;;;;;;0.73;0.70;;;;;;;1.36;47.55;102180.41;4388282;32;33679;-89
2023/02/07 08:57:33;;;;;;;3.08;2.28;;;;;;;1.54;47.63;102167.09;4387484;32;33638;-89
2023/02/07 09:00:37;;;;;;;1.58;1.50;;;;;;;1.85;46.79;102165.41;4402431;32;34247;-89
2023/02/07 09:03:12;;;;;;;0.73;0.73;;;;;;;1.58;47.49;102168.97;4380524;32;33367;-88
2023/02/07 09:06:07;;;;;;;6.75;1.10;;;;;;;1.68;46.88;102168.41;4389820;32;34398;-88
2023/02/07 09:08:39;;;;;;;0.77;0.77;;;;;;;1.86;46.48;102170.69;4374071;32;32064;-88
2023/02/07 09:11:31;;;;;;;2.08;1.98;;;;;;;1.84;47.58;102169.72;4404056;32;35004;-89
2023/02/07 09:14:07;;;;;;;2.55;2.35;;;;;;;1.54;47.36;102169.69;4412586;32;33553;-89
2023/02/07 09:16:54;;;;;;;0.17;0.17;;;;;;;1.54;48.27;102178.38;4381359;32;36040;-89
2023/02/07 09:19:39;;;;;;;1.15;1.08;;;;;;;1.45;47.74;102178.09;4390386;32;33497;-89
2023/02/07 09:22:31;;;;;;;2.67;2.58;;;;;;;1.82;47.23;102165.34;4397696;32;35122;-88
2023/02/07 09:25:10;;;;;;;;;;;;;;;1.69;46.73;102169.28;4362799;32;778777;-88
2023/02/07 09:27:55;;;;;;;0.30;0.30;;;;;;;2.02;46.54;102169.41;4397872;32;33029;-88
2023/02/07 09:30:36;;;;;;;0.20;0.20;;;;;;;2.42;45.69;102162.69;4378515;32;34528;-89
2023/02/07 09:33:28;;;;;;;0.90;0.90;;;;;;;2.40;45.06;102161.78;4390501;32;33361;-88
2023/02/07 09:36:19;;;;;;;0.62;0.60;;;;;;;2.66;44.71;102163.38;4403015;32;33106;-88
2023/02/07 09:38:57;;;;;;;2.87;1.62;;;;;;;2.86;44.29;102156.06;4387785;32;35249;-88
2023/02/07 09:42:08;;;;;;;0.30;0.30;;;;;;;2.89;45.03;102165.66;4386461;32;32430;-89
2023/02/07 09:47:59;;;;;;;2.90;2.62;;;;;;;3.44;42.46;102156.59;4384221;32;35053;-88
2023/02/07 09:50:44;;;;;;;0.62;0.60;;;;;;;3.66;42.24;102158.84;4403618;32;32905;-88
2023/02/07 09:53:26;;;;;;;0.85;0.85;;;;;;;3.47;42.45;102151.44;4403408;32;33460;-88
2023/02/07 09:56:18;;;;;;;6.82;3.20;;;;;;;3.05;42.38;102152.19;4387658;32;33486;-88
2023/02/07 09:59:15;;;;;;;1.15;1.15;;;;;;;3.38;41.77;102148.63;4398025;32;33337;-88
2023/02/07 10:01:53;;;;;;;2.83;2.33;;;;;;;3.72;41.54;102151.13;4380286;32;35058;-88
2023/02/07 10:04:37;;;;;;;3.28;3.08;;;;;;;3.79;41.58;102145.16;4391105;32;32492;-88
2023/02/07 10:07:21;;;;;;;0.55;0.55;;;;;;;3.68;40.73;102146.69;4390625;32;34111;-88
2023/02/07 10:09:56;;;;;;;2.15;1.20;;;;;;;3.96;40.14;102140.31;4396123;32;34185;-88
2023/02/07 10:12:49;;;;;;;1.70;1.60;;;;;;;4.50;38.87;102137.00;4399526;32;33301;-88
2023/02/07 10:15:52;;;;;;;2.58;2.47;;;;;;;4.72;38.71;102132.19;4391099;32;32562;-88
2023/02/07 10:18:50;;;;;;;1.02;1.02;;;;;;;5.03;37.34;102131.84;4393797;32;33974;-88
2023/02/07 10:21:42;;;;;;;1.37;1.37;;;;;;;4.70;38.45;102134.78;4376522;32;33042;-87
2023/02/07 10:24:34;;;;;;;0.08;0.08;;;;;;;3.94;41.92;102135.88;4406026;32;34963;-88
2023/02/07 10:27:13;;;;;;;1.65;1.55;;;;;;;4.50;40.04;102136.13;4399474;32;32184;-88
2023/02/07 10:29:55;;;;;;;4.15;1.75;;;;;;;4.45;40.23;102128.19;4401979;32;33096;-88
2023/02/07 10:32:36;;;;;;;1.00;1.00;;;;;;;5.22;37.63;102119.03;4400598;32;34103;-88
2023/02/07 10:35:25;;;;;;;1.27;0.75;;;;;;;5.42;36.91;102111.47;4397024;32;33362;-88
2023/02/07 10:38:00;;;;;;;0.70;0.70;;;;;;;5.58;36.17;102113.44;4393566;32;33426;-87
2023/02/07 10:40:48;;;;;;;0.93;0.93;;;;;;;5.28;37.09;102114.78;4398839;32;32881;-87
2023/02/07 10:43:32;;;;;;;0.20;0.20;;;;;;;5.46;36.24;102108.00;4399360;32;33050;-88
2023/02/07 10:46:08;;;;;;;;;;;;;;;5.58;34.61;102103.84;4396252;32;33361;-87
2023/02/07 10:48:50;;;;;;;0.73;0.73;;;;;;;5.27;35.13;102099.00;4409919;32;32669;-87
2023/02/07 10:51:36;;;;;;;4.47;2.33;;;;;;;4.30;37.16;102102.62;4386578;32;34492;-87
2023/02/07 10:54:12;;;;;;;2.72;1.85;;;;;;;4.94;36.00;102096.75;4379600;32;34249;-87
2023/02/07 10:56:51;;;;;;;0.98;0.98;;;;;;;5.11;35.30;102095.28;4392305;32;34084;-87
2023/02/07 10:59:46;;;;;;;1.33;1.23;;;;;;;5.02;35.37;102087.28;4394439;32;33718;-87
2023/02/07 11:02:38;;;;;;;0.55;0.55;;;;;;;4.60;36.79;102102.34;4394888;32;33720;-87
2023/02/07 11:05:13;;;;;;;1.65;0.95;;;;;;;4.97;36.85;102087.22;4394178;32;34054;-87
2023/02/07 11:08:10;;;;;;;1.23;1.23;;;;;;;5.14;36.61;102085.75;4406067;32;33342;-87
2023/02/07 11:10:42;;;;;;;;;;;;;;;5.47;35.27;102094.09;4393115;32;33720;-87
2023/02/07 11:13:15;;;;;;;0.82;0.82;;;;;;;5.02;36.17;102084.66;4393594;32;34960;-88
2023/02/07 11:15:49;;;;;;;1.65;1.55;;;;;;;5.34;36.47;102088.66;4381404;32;33212;-87
2023/02/07 11:18:27;;;;;;;5.53;1.37;;;;;;;5.17;38.92;102084.91;4393207;32;32835;-87
2023/02/07 11:20:59;;;;;;;1.90;1.75;;;;;;;5.62;35.46;102079.44;4391786;32;33037;-87
2023/02/07 11:23:28;;;;;;;3.92;2.65;;;;;;;5.81;35.63;102075.31;4380853;32;32809;-86
2023/02/07 11:26:02;;;;;;;2.53;2.12;;;;;;;5.85;34.53;102076.22;4393879;32;34889;-87
2023/02/07 11:31:16;;;;;;;1.80;1.40;;;;;;;5.92;34.37;102077.19;4395073;32;34380;-87
2023/02/07 11:33:46;;;;;;;1.73;0.93;;;;;;;6.04;34.57;102069.50;4405751;32;33906;-87
2023/02/07 11:36:31;;;;;;;0.57;0.57;;;;;;;6.21;33.98;102064.41;4396212;32;34378;-87
2023/02/07 11:39:02;;;;;;;14.70;4.03;;;;;;;6.32;33.12;102063.66;4394222;32;33553;-87
2023/02/07 11:41:37;;;;;;;3.10;1.67;;;;;;;6.38;33.21;102057.59;4392520;32;32972;-86
2023/02/07 11:44:16;;;;;;;1.65;1.55;;;;;;;5.80;35.50;102063.06;4382432;32;32756;-87
2023/02/07 11:46:56;;;;;;;0.57;0.57;;;;;;;5.43;35.42;102066.06;4403589;32;35775;-85
2023/02/07 11:49:29;;;;;;;2.42;2.12;;;;;;;5.56;34.73;102063.63;4402306;32;33322;-86
2023/02/07 11:52:00;;;;;;;8.52;3.05;;;;;;;6.11;33.34;102055.56;4402901;32;33371;-86
2023/02/07 11:54:30;;;;;;;1.55;1.48;;;;;;;6.11;33.41;102050.31;4390798;32;33215;-85
2023/02/07 11:57:10;;;;;;;4.37;2.37;;;;;;;6.29;33.37;102050.50;4396896;32;33805;-86
2023/02/07 12:00:07;;;;;;;1.58;1.48;;;;;;;6.06;34.68;102052.00;4395769;32;33624;-86
2023/02/07 12:02:59;;;;;;;1.37;1.27;;;;;;;6.16;33.44;102046.87;4392972;32;31495;-85
2023/02/07 12:05:38;;;;;;;1.17;1.17;;;;;;;6.38;33.13;102047.09;4403105;32;33687;-86
2023/02/07 12:08:21;;;;;;;1.75;1.30;;;;;;;6.15;34.47;102050.37;4402652;32;33228;-86
2023/02/07 12:13:56;;;;;;;1.10;0.98;;;;;;;6.72;33.69;102037.75;4378906;32;33659;-84
2023/02/07 12:16:40;;;;;;;2.37;2.17;;;;;;;6.95;33.08;102029.19;4370830;32;33426;-85
2023/02/07 12:19:33;;;;;;;0.17;0.17;;;;;;;7.03;32.93;102027.50;4390861;32;34326;-82
2023/02/07 12:22:15;;;;;;;5.15;2.78;;;;;;;6.58;33.19;102034.16;4392788;32;32675;-83
2023/02/07 12:24:56;;;;;;;4.93;1.45;;;;;;;6.66;31.50;102021.97;4393033;32;31423;-84
2023/02/07 12:27:39;;;;;;;2.20;2.08;;;;;;;7.17;30.20;102025.84;4390931;32;34393;-83
2023/02/07 12:30:31;;;;;;;1.75;1.55;;;;;;;6.40;32.21;102030.50;4390768;32;35540;-83
2023/02/07 12:36:01;;;;;;;2.30;2.10;;;;;;;6.66;30.76;102033.34;4384427;32;31727;-83
2023/02/07 12:39:00;;;;;;;1.17;1.17;;;;;;;6.07;31.22;102030.16;4392185;32;33043;-83
2023/02/07 12:41:52;;;;;;;5.47;1.45;;;;;;;5.56;33.01;102036.56;4387918;32;34419;-82
2023/02/07 12:44:25;;;;;;;1.25;1.17;;;;;;;5.39;34.04;102039.81;4402964;32;33841;-83
2023/02/07 12:47:34;;;;;;;1.40;1.37;;;;;;;5.23;35.59;102029.13;4404644;32;33290;-84
2023/02/07 12:50:17;;;;;;;0.03;0.03;;;;;;;5.17;35.43;102032.53;4392629;32;33845;-84
2023/02/07 12:53:13;;;;;;;0.95;0.95;;;;;;;5.32;34.98;102026.63;4395705;32;33593;-83
2023/02/07 12:55:56;;;;;;;1.42;1.33;;;;;;;5.70;33.41;102021.88;4387468;32;33462;-83
2023/02/07 13:01:51;;;;;;;3.05;2.28;;;;;;;6.07;31.84;102017.06;4392127;32;33906;-84
2023/02/07 13:04:24;;;;;;;2.80;2.50;;;;;;;6.22;32.48;102018.94;4379685;32;35928;-83
2023/02/07 13:07:23;;;;;;;0.20;0.20;;;;;;;6.02;32.99;102016.13;4403943;32;34218;-83
2023/02/07 13:10:22;;;;;;;0.70;0.70;;;;;;;5.97;33.04;102013.44;4388901;32;33869;-83
2023/02/07 13:13:07;;;;;;;1.17;1.17;;;;;;;5.71;32.98;102018.38;4387480;32;32756;-83
2023/02/07 13:16:20;;;;;;;1.67;1.58;;;;;;;5.83;32.88;102026.37;4388639;32;33648;-83
2023/02/07 13:19:04;;;;;;;0.93;0.93;;;;;;;5.99;32.24;102013.50;4326929;33;32307;-83
2023/02/07 13:21:46;;;;;;;1.23;1.17;;;;;;;6.09;32.89;102008.34;4383644;32;32975;-83
2023/02/07 13:24:18;;;;;;;3.08;2.05;;;;;;;6.44;31.84;102009.53;4401600;32;34537;-83
2023/02/07 13:26:54;;;;;;;2.83;2.03;;;;;;;6.11;32.64;102005.72;4388783;32;33518;-83
2023/02/07 13:29:37;;;;;;;3.20;2.05;;;;;;;6.24;31.93;102011.97;4397033;32;33665;-83
2023/02/07 13:32:18;;;;;;;1.10;1.10;;;;;;;6.08;32.29;102009.22;4392612;32;34063;-83
2023/02/07 13:34:58;;;;;;;0.17;0.17;;;;;;;6.24;31.65;102010.25;4391431;32;32149;-83
2023/02/07 13:37:58;;;;;;;1.80;1.70;;;;;;;5.85;32.89;102014.19;4382128;32;34894;-84
2023/02/07 13:40:43;;;;;;;1.12;1.08;;;;;;;5.93;31.93;102000.28;4366217;32;33000;-83
2023/02/07 13:43:42;;;;;;;0.60;0.60;;;;;;;5.72;32.21;102009.66;4399857;32;33280;-83